Time;durP1;ratioP1;P1;durP2;ratioP2;P2;SDS_P1;SDS_P2;PMS_P1;PMS_P2;Temp;Humidity;BMP_temperature;BMP_pressure;BME280_temperature;BME280_humidity;BME280_pressure;Samples;Min_cycle;Max_cycle;Signal;HPM_P1;HPM_P2
2022/06/16 00:01:07;;;;;;;4.27;4.23;;;;;;;16.89;71.21;65969.19;5135044;27;20261;-71
2022/06/16 00:03:34;;;;;;;4.67;4.53;;;;;;;16.83;71.62;65955.19;5135077;27;20192;-70
2022/06/16 00:06:00;;;;;;;5.30;5.20;;;;;;;16.75;71.63;65949.47;5135275;27;20187;-71
2022/06/16 00:08:27;;;;;;;4.73;4.60;;;;;;;16.73;71.48;65967.66;5135025;27;20188;-70
2022/06/16 00:13:39;;;;;;;5.27;5.17;;;;;;;16.64;71.65;65937.19;5134917;27;20200;-70
2022/06/16 00:16:06;;;;;;;5.20;5.10;;;;;;;16.63;72.14;65941.31;5135060;27;20249;-71
2022/06/16 00:18:34;;;;;;;5.83;4.67;;;;;;;16.60;71.74;65937.97;5135075;27;20543;-71
2022/06/16 00:21:01;;;;;;;5.03;4.83;;;;;;;16.56;71.81;65930.88;5134924;27;20615;-72
2022/06/16 00:23:27;;;;;;;5.57;5.27;;;;;;;16.45;71.82;65927.06;5135003;27;20711;-71
2022/06/16 00:25:54;;;;;;;4.90;4.60;;;;;;;16.44;72.03;65917.53;5134695;27;20219;-72
2022/06/16 00:28:21;;;;;;;6.73;4.80;;;;;;;16.46;72.02;65917.13;5134659;27;20180;-71
2022/06/16 00:30:48;;;;;;;5.10;5.00;;;;;;;16.42;71.74;65917.91;5135043;27;20321;-71
2022/06/16 00:33:15;;;;;;;4.80;4.80;;;;;;;16.37;72.12;65907.13;5134580;27;20192;-71
2022/06/16 00:35:41;;;;;;;4.80;4.80;;;;;;;16.35;72.06;65913.28;5116091;27;20249;-71
2022/06/16 00:38:08;;;;;;;4.47;4.37;;;;;;;16.34;71.92;65909.00;5134775;27;20184;-71
2022/06/16 00:40:34;;;;;;;4.57;4.57;;;;;;;16.29;71.91;65900.81;5134428;27;20553;-71
2022/06/16 00:43:01;;;;;;;4.83;4.73;;;;;;;16.28;71.80;65912.78;5134712;27;20192;-72
2022/06/16 00:45:46;;;;;;;4.33;4.23;;;;;;;16.29;71.88;65898.19;5135196;27;20243;-71
2022/06/16 00:48:21;;;;;;;5.57;5.00;;;;;;;16.15;72.01;65886.34;5134627;27;20215;-72
2022/06/16 00:50:56;;;;;;;5.10;4.80;;;;;;;16.14;71.96;65882.59;5134323;27;20246;-71
2022/06/16 00:53:26;;;;;;;4.77;4.57;;;;;;;16.12;71.96;65877.19;5134288;27;20210;-71
2022/06/16 00:55:52;;;;;;;5.47;5.27;;;;;;;16.08;71.94;65875.91;5134226;27;20212;-71
2022/06/16 00:58:21;;;;;;;5.33;4.90;;;;;;;16.02;72.13;65869.22;5115833;28;20195;-71
2022/06/16 01:00:50;;;;;;;5.10;4.73;;;;;;;15.99;72.08;65868.50;5115801;28;20242;-70
2022/06/16 01:04:51;;;;;;;5.13;4.77;;;;;;;15.86;72.41;65851.41;5115896;28;20201;-70
2022/06/16 01:06:19;;;;;;;7.03;5.00;;;;;;;15.86;72.70;65849.34;5115944;28;20527;-71
2022/06/16 01:08:48;;;;;;;4.90;4.80;;;;;;;15.85;72.59;65871.78;5134175;28;20237;-71
2022/06/16 01:14:35;;;;;;;4.77;4.50;;;;;;;15.85;72.59;65860.75;5115774;28;20655;-71
2022/06/16 01:17:10;;;;;;;5.40;5.30;;;;;;;15.81;72.56;65851.09;5134592;28;20192;-71
2022/06/16 01:19:58;;;;;;;4.73;4.20;;;;;;;15.78;72.57;65840.44;5134106;28;20172;-71
2022/06/16 01:22:40;;;;;;;4.70;4.60;;;;;;;15.76;72.59;65840.28;5115700;28;20223;-71
2022/06/16 01:25:23;;;;;;;4.67;4.47;;;;;;;;;;5134326;28;20165;-71
2022/06/16 01:28:16;;;;;;;5.07;4.77;;;;;;;15.62;72.99;65836.25;5134330;28;20176;-70
2022/06/16 01:31:03;;;;;;;4.73;4.53;;;;;;;15.64;73.26;65830.66;5115492;28;20173;-71
2022/06/16 01:33:56;;;;;;;4.97;4.50;;;;;;;15.67;73.20;65843.91;5115556;28;20192;-71
2022/06/16 01:36:34;;;;;;;4.60;4.47;;;;;;;15.67;73.16;65836.03;5115522;28;20576;-71
2022/06/16 01:39:10;;;;;;;5.33;5.13;;;;;;;15.66;73.08;65830.25;5115801;28;20642;-71
2022/06/16 01:42:00;;;;;;;5.23;4.53;;;;;;;15.59;73.55;65830.28;5116040;28;20205;-72
2022/06/16 01:44:34;;;;;;;4.27;4.07;;;;;;;15.63;73.04;65842.59;5134453;28;20181;-72
2022/06/16 01:47:11;;;;;;;4.63;4.50;;;;;;;15.65;73.00;65837.00;5115779;28;20184;-72
2022/06/16 01:49:43;;;;;;;4.77;4.77;;;;;;;15.65;73.32;65834.38;5115453;28;20185;-72
2022/06/16 01:52:20;;;;;;;4.60;4.60;;;;;;;15.69;73.79;65846.66;5115381;28;20265;-72
2022/06/16 01:54:55;;;;;;;4.93;4.73;;;;;;;15.65;74.06;65834.38;5115427;28;20177;-71
2022/06/16 01:57:38;;;;;;;3.90;3.90;;;;;;;15.64;74.59;65835.88;5133963;28;20196;-71
2022/06/16 02:00:12;;;;;;;4.43;4.43;;;;;;;15.62;74.98;65825.78;5115369;28;20196;-71
2022/06/16 02:02:48;;;;;;;5.63;5.53;;;;;;;15.61;74.98;65829.91;5134054;28;20235;-71
2022/06/16 02:05:22;;;;;;;3.97;3.87;;;;;;;15.53;74.93;65815.75;5115655;27;20192;-71
2022/06/16 02:08:00;;;;;;;5.43;5.23;;;;;;;15.48;74.68;65812.81;5119796;27;20180;-71
2022/06/16 02:10:34;;;;;;;5.07;4.80;;;;;;;15.46;74.43;65810.03;5118991;27;20184;-72
2022/06/16 02:13:05;;;;;;;4.70;4.60;;;;;;;15.44;73.62;65808.34;5118864;27;20199;-72
2022/06/16 02:16:08;;;;;;;4.87;4.60;;;;;;;15.41;73.14;65805.56;5118723;27;20192;-71
2022/06/16 02:18:40;;;;;;;4.20;4.20;;;;;;;15.36;73.47;65796.84;5118751;27;20181;-71
2022/06/16 02:21:22;;;;;;;4.50;4.50;;;;;;;15.34;73.69;65795.16;5118581;27;20212;-72
2022/06/16 02:23:48;;;;;;;3.90;3.90;;;;;;;15.30;73.96;65800.63;5118660;27;20188;-71
2022/06/16 02:26:15;;;;;;;5.47;5.37;;;;;;;15.36;73.34;65796.84;5118653;27;20189;-71
2022/06/16 02:28:48;;;;;;;5.00;4.93;;;;;;;15.30;73.18;65795.38;5118608;27;20658;-72
2022/06/16 02:31:24;;;;;;;4.37;4.30;;;;;;;15.22;73.20;65786.50;5118418;27;20677;-71
2022/06/16 02:34:19;;;;;;;5.10;4.97;;;;;;;15.19;73.15;65799.38;5118425;27;20184;-71
2022/06/16 02:37:18;;;;;;;4.73;4.43;;;;;;;15.09;73.34;65767.91;5137374;27;20241;-70
2022/06/16 02:40:02;;;;;;;5.30;5.10;;;;;;;15.05;73.72;65773.34;5137326;27;20181;-70
2022/06/16 02:42:35;;;;;;;4.37;4.37;;;;;;;15.03;73.90;65761.22;5118272;27;20212;-71
2022/06/16 02:45:08;;;;;;;3.97;3.93;;;;;;;;;;5136714;27;20530;-71
2022/06/16 02:47:56;;;;;;;4.80;4.57;;;;;;;15.03;73.78;65771.69;5136682;27;20188;-71
2022/06/16 02:50:37;;;;;;;5.03;4.87;;;;;;;15.01;74.21;65755.84;5118164;27;20191;-71
2022/06/16 02:53:30;;;;;;;4.77;4.67;;;;;;;14.95;74.24;65751.75;5136881;27;20169;-72
2022/06/16 02:56:02;;;;;;;4.10;4.07;;;;;;;14.88;74.08;65746.59;5108410;27;20189;-70
2022/06/16 02:58:34;;;;;;;4.23;4.20;;;;;;;14.86;74.25;65747.53;5117997;27;20612;-70
2022/06/16 03:01:02;;;;;;;4.40;4.27;;;;;;;14.84;74.12;65745.28;5117921;27;20261;-72
2022/06/16 03:03:30;;;;;;;4.17;4.07;;;;;;;;;;5117868;27;20239;-71
2022/06/16 03:06:05;;;;;;;4.83;4.63;;;;;;;14.78;74.26;65751.69;5117855;27;20554;-71
2022/06/16 03:08:38;;;;;;;4.77;4.57;;;;;;;14.74;74.36;65745.19;5136191;27;20184;-71
2022/06/16 03:11:06;;;;;;;8.03;4.33;;;;;;;14.76;74.40;65739.56;5117691;27;20213;-72
2022/06/16 03:13:33;;;;;;;4.23;4.13;;;;;;;14.74;74.63;65729.50;5117942;27;20206;-72
2022/06/16 03:16:02;;;;;;;4.50;4.40;;;;;;;14.72;75.29;65729.34;5117541;27;20203;-71
2022/06/16 03:18:31;;;;;;;4.87;4.67;;;;;;;14.63;75.60;65735.00;5116549;27;20184;-71
2022/06/16 03:20:58;;;;;;;5.40;4.87;;;;;;;14.58;75.69;65725.34;5135867;27;20666;-71
2022/06/16 03:23:25;;;;;;;4.10;4.10;;;;;;;14.54;75.69;65713.03;5117500;27;20189;-71
2022/06/16 03:25:53;;;;;;;4.30;4.30;;;;;;;14.51;75.37;65714.94;5117692;27;20185;-71
2022/06/16 03:28:20;;;;;;;3.80;3.80;;;;;;;14.46;75.11;65696.31;5117427;27;20249;-71
2022/06/16 03:30:46;;;;;;;4.23;4.23;;;;;;;14.45;75.27;65708.22;5117265;27;20192;-72
2022/06/16 03:33:16;;;;;;;4.00;4.00;;;;;;;14.42;75.42;65699.09;5135952;27;20188;-71
2022/06/16 03:35:47;;;;;;;3.97;3.87;;;;;;;14.42;75.06;65697.06;5117294;27;20630;-71
2022/06/16 03:38:21;;;;;;;4.37;4.17;;;;;;;14.42;75.04;65699.09;5117141;27;20208;-71
2022/06/16 03:40:48;;;;;;;3.90;3.90;;;;;;;14.38;75.34;65697.28;5117092;27;20223;-72
2022/06/16 03:43:15;;;;;;;3.83;3.83;;;;;;;14.39;75.32;65696.34;5117367;27;20566;-71
2022/06/16 03:45:42;;;;;;;4.27;4.17;;;;;;;14.31;75.89;65690.59;5117054;27;20191;-71
2022/06/16 03:48:09;;;;;;;4.13;4.03;;;;;;;14.28;75.97;65691.91;5117278;27;20185;-71
2022/06/16 03:50:40;;;;;;;4.17;4.07;;;;;;;14.23;76.25;65684.31;5117174;27;20757;-72
2022/06/16 03:53:07;;;;;;;3.70;3.70;;;;;;;14.23;75.93;65671.25;5116933;27;20216;-72
2022/06/16 03:55:39;;;;;;;3.97;3.97;;;;;;;14.20;75.76;65669.97;5117193;27;20247;-72
2022/06/16 03:58:06;;;;;;;3.63;3.63;;;;;;;14.19;75.41;65674.09;5116753;27;20287;-71
2022/06/16 04:00:33;;;;;;;3.90;3.90;;;;;;;14.19;75.47;65674.63;5117231;27;20184;-71
2022/06/16 04:05:51;;;;;;;3.87;3.67;;;;;;;14.19;75.65;65669.41;5117552;27;20279;-71
2022/06/16 04:08:19;;;;;;;4.77;4.00;;;;;;;14.18;75.51;65668.31;5116615;27;20271;-71
2022/06/16 04:10:48;;;;;;;4.33;3.63;;;;;;;14.16;75.35;65670.75;5116589;27;20603;-71
2022/06/16 04:13:15;;;;;;;3.40;3.40;;;;;;;14.17;75.02;65672.44;5116525;27;20196;-71
2022/06/16 04:15:51;;;;;;;4.10;4.00;;;;;;;14.20;75.23;65667.38;5116545;27;20187;-71
2022/06/16 04:18:21;;;;;;;3.83;3.73;;;;;;;14.20;75.27;65672.59;5117259;27;20261;-71
2022/06/16 04:20:48;;;;;;;3.43;3.43;;;;;;;14.18;75.20;65670.38;5116936;27;20184;-70
2022/06/16 04:23:41;;;;;;;4.00;3.90;;;;;;;14.23;74.92;65679.09;5134770;27;20180;-71
2022/06/16 04:26:08;;;;;;;3.90;3.63;;;;;;;14.35;74.98;65691.31;5116338;27;20184;-71
2022/06/16 04:28:40;;;;;;;3.40;3.40;;;;;;;14.37;75.40;65704.00;5134975;27;20622;-71
2022/06/16 04:31:08;;;;;;;3.57;3.47;;;;;;;14.46;75.26;65698.38;5116138;27;20215;-71
2022/06/16 04:33:35;;;;;;;3.23;3.23;;;;;;;14.48;75.45;65708.41;5117031;27;20188;-71
2022/06/16 04:36:06;;;;;;;4.53;3.73;;;;;;;14.51;75.44;65709.72;5116732;27;20237;-71
2022/06/16 04:38:40;;;;;;;4.27;3.90;;;;;;;14.53;75.37;65706.69;5116410;27;20237;-71
2022/06/16 04:41:07;;;;;;;4.03;3.93;;;;;;;14.54;75.25;65717.72;5116050;28;20208;-71
2022/06/16 04:43:34;;;;;;;3.73;3.73;;;;;;;14.64;74.83;65718.38;5116093;28;20685;-71
2022/06/16 04:46:03;;;;;;;4.00;3.90;;;;;;;14.62;74.93;65721.38;5116008;27;20196;-71
2022/06/16 04:48:43;;;;;;;3.90;3.87;;;;;;;14.59;74.76;65716.00;5116304;27;20678;-70
2022/06/16 04:51:15;;;;;;;3.87;3.77;;;;;;;14.61;74.65;65724.94;5116405;28;20216;-71
2022/06/16 04:53:48;;;;;;;3.27;3.23;;;;;;;14.62;75.21;65726.59;5115960;28;20669;-71
2022/06/16 04:56:20;;;;;;;3.10;3.10;;;;;;;14.66;75.33;65717.44;5115827;27;20665;-72
2022/06/16 04:58:55;;;;;;;4.27;4.07;;;;;;;;;;5116717;27;20204;-71
2022/06/16 05:01:47;;;;;;;3.50;3.50;;;;;;;14.68;75.40;65732.72;5115809;28;20208;-71
2022/06/16 05:04:49;;;;;;;3.53;3.53;;;;;;;14.76;75.06;65733.78;5120958;28;20210;-71
2022/06/16 05:07:38;;;;;;;4.03;3.87;;;;;;;14.70;74.95;65732.34;5134518;28;20164;-72
2022/06/16 05:10:12;;;;;;;3.33;3.23;;;;;;;14.62;75.22;65724.00;5115870;28;20597;-71
2022/06/16 05:12:54;;;;;;;3.63;3.63;;;;;;;14.66;76.05;65740.97;5115792;28;20733;-71
2022/06/16 05:15:54;;;;;;;2.80;2.80;;;;;;;14.68;75.80;65722.28;5115941;28;20283;-71
2022/06/16 05:18:30;;;;;;;3.97;3.70;;;;;;;14.70;76.56;65724.50;5115656;28;20216;-71
2022/06/16 05:21:15;;;;;;;3.60;3.60;;;;;;;14.77;76.85;65742.72;5134615;28;20204;-71
2022/06/16 05:24:14;;;;;;;4.10;3.73;;;;;;;14.84;76.76;65742.69;5077773;28;20204;-71
2022/06/16 05:26:53;;;;;;;7.40;3.70;;;;;;;14.89;76.69;65758.72;5134349;28;20262;-72
2022/06/16 05:29:34;;;;;;;3.80;3.53;;;;;;;14.88;76.62;65749.75;5100832;28;20192;-72
2022/06/16 05:32:19;;;;;;;4.60;4.20;;;;;;;14.87;76.85;65746.03;5115808;28;20223;-72
2022/06/16 05:35:05;;;;;;;4.17;4.07;;;;;;;14.91;77.26;65758.31;5134264;28;20180;-72
2022/06/16 05:37:41;;;;;;;4.27;4.17;;;;;;;15.00;77.16;65773.56;5115508;28;20232;-71
2022/06/16 05:40:26;;;;;;;4.37;4.13;;;;;;;15.02;77.88;65760.09;5135260;27;20226;-71
2022/06/16 05:43:12;;;;;;;3.33;3.33;;;;;;;15.01;77.43;65769.47;5119490;27;20177;-72
2022/06/16 05:46:17;;;;;;;4.93;4.70;;;;;;;15.02;77.17;65760.09;5103206;27;20727;-71
2022/06/16 05:48:53;;;;;;;4.60;3.87;;;;;;;15.03;77.65;65766.44;5119309;27;20215;-71
2022/06/16 05:51:22;;;;;;;4.07;3.97;;;;;;;15.06;78.23;65769.22;5119235;27;20588;-70
2022/06/16 05:54:14;;;;;;;4.03;4.03;;;;;;;15.19;77.97;65796.22;5134370;27;20203;-70
2022/06/16 05:56:43;;;;;;;4.20;4.17;;;;;;;15.26;78.26;65790.94;5119438;27;20681;-70
2022/06/16 05:59:11;;;;;;;4.47;4.13;;;;;;;15.36;77.73;65802.63;5119380;27;20193;-70
2022/06/16 06:01:43;;;;;;;4.40;4.30;;;;;;;15.44;78.35;65816.22;5119348;27;20708;-71
2022/06/16 06:04:11;;;;;;;4.23;4.13;;;;;;;15.49;78.05;65821.22;5119130;27;20676;-70
2022/06/16 06:06:41;;;;;;;4.30;4.20;;;;;;;15.63;77.42;65834.19;5119039;27;20192;-70
2022/06/16 06:18:07;;;;;;;3.97;3.87;;;;;;;16.01;76.71;65870.75;5034456;28;20215;-71
2022/06/16 06:20:33;;;;;;;4.20;4.00;;;;;;;15.99;76.59;65865.88;5090686;27;20214;-72
2022/06/16 06:23:00;;;;;;;3.40;3.40;;;;;;;16.03;76.55;65875.59;5118923;27;20195;-71
2022/06/16 06:25:27;;;;;;;3.97;3.87;;;;;;;16.02;76.49;65866.63;5118583;27;20554;-71
2022/06/16 06:27:53;;;;;;;3.60;3.60;;;;;;;16.08;76.43;65885.84;5118576;27;20188;-72
2022/06/16 06:30:23;;;;;;;3.83;3.73;;;;;;;16.03;76.72;65870.34;5118847;27;20196;-72
2022/06/16 06:32:51;;;;;;;3.93;3.50;;;;;;;16.12;76.69;65880.38;5136872;27;20204;-71
2022/06/16 06:35:17;;;;;;;4.30;4.00;;;;;;;16.19;77.10;65887.59;5118530;27;20216;-70
2022/06/16 06:37:44;;;;;;;4.53;3.90;;;;;;;16.26;76.61;65894.84;5136792;27;20243;-71
2022/06/16 06:40:24;;;;;;;3.57;3.57;;;;;;;16.43;77.24;65919.03;5118557;27;20548;-71
2022/06/16 06:42:51;;;;;;;4.10;3.80;;;;;;;16.50;76.11;65926.81;5136725;27;20243;-71
2022/06/16 06:45:18;;;;;;;4.43;3.20;;;;;;;16.61;75.68;65936.47;5136920;27;20666;-71
2022/06/16 06:47:45;;;;;;;3.03;3.00;;;;;;;16.74;76.68;65945.19;5136630;27;20192;-71
2022/06/16 06:50:18;;;;;;;3.43;3.40;;;;;;;;;;5136871;27;20566;-71
2022/06/16 06:52:44;;;;;;;3.63;3.53;;;;;;;;;;5136873;27;20212;-71
2022/06/16 06:55:11;;;;;;;3.70;3.60;;;;;;;16.86;72.76;65957.97;5136493;27;20205;-72
2022/06/16 06:57:37;;;;;;;3.87;3.40;;;;;;;16.95;73.27;65971.22;5136386;27;20208;-71
2022/06/16 07:00:04;;;;;;;3.73;3.40;;;;;;;17.02;73.08;65981.06;5136381;27;20223;-71
2022/06/16 07:02:31;;;;;;;3.33;3.33;;;;;;;;;;5136151;27;20228;-71
2022/06/16 07:04:57;;;;;;;3.53;3.43;;;;;;;;;;5136893;27;20208;-72
2022/06/16 07:07:25;;;;;;;3.07;2.97;;;;;;;17.23;71.32;65999.25;5136247;27;20185;-72
2022/06/16 07:09:51;;;;;;;2.70;2.70;;;;;;;17.30;71.73;66009.13;5136219;27;20554;-71
2022/06/16 07:12:18;;;;;;;2.87;2.77;;;;;;;17.38;68.37;66022.72;5133931;27;20208;-71
2022/06/16 07:14:48;;;;;;;3.10;3.10;;;;;;;17.31;67.72;66016.03;5112275;27;20189;-72
2022/06/16 07:17:17;;;;;;;3.03;3.00;;;;;;;17.28;68.58;66012.13;5113798;28;20266;-72
2022/06/16 07:19:43;;;;;;;2.77;2.60;;;;;;;17.42;67.85;66027.72;5127327;27;20200;-70
2022/06/16 07:22:10;;;;;;;2.53;2.53;;;;;;;17.48;66.43;66029.19;5109961;27;20924;-71
2022/06/16 07:24:37;;;;;;;3.23;2.67;;;;;;;17.55;65.82;66036.44;5124406;27;20643;-71
2022/06/16 07:27:06;;;;;;;2.73;2.63;;;;;;;17.60;65.24;66042.00;5117649;27;20217;-71
2022/06/16 07:29:32;;;;;;;3.03;3.03;;;;;;;17.54;65.53;66040.56;5121155;27;20217;-71
2022/06/16 07:32:04;;;;;;;3.40;3.27;;;;;;;17.54;65.25;66035.31;5109941;27;20604;-71
2022/06/16 07:34:31;;;;;;;2.60;2.60;;;;;;;;;;5115364;28;20186;-71
2022/06/16 07:36:57;;;;;;;3.07;2.47;;;;;;;17.66;65.77;66048.69;5113760;28;20199;-71
2022/06/16 07:39:26;;;;;;;2.50;2.50;;;;;;;17.68;64.49;66050.94;5115028;28;20553;-72
2022/06/16 07:41:52;;;;;;;2.50;2.40;;;;;;;17.67;62.58;66052.44;5114740;28;20214;-73
2022/06/16 07:44:19;;;;;;;2.10;2.10;;;;;;;17.68;63.46;66058.81;5114002;28;20614;-72
2022/06/16 07:46:49;;;;;;;4.00;2.57;;;;;;;17.70;62.29;66052.59;5115772;28;20178;-72
2022/06/16 07:49:22;;;;;;;2.80;2.80;;;;;;;17.61;63.02;66043.69;5114839;28;20188;-72
2022/06/16 07:51:50;;;;;;;2.60;2.40;;;;;;;17.68;62.67;66050.38;5108454;27;20574;-72
2022/06/16 07:54:18;;;;;;;2.67;2.43;;;;;;;17.78;63.40;66066.78;5117848;27;20231;-72
2022/06/16 07:57:04;;;;;;;2.60;2.50;;;;;;;17.89;63.00;66079.06;5117535;27;20212;-72
2022/06/16 07:59:31;;;;;;;2.10;2.10;;;;;;;17.85;62.27;66069.91;5123981;27;20257;-72
2022/06/16 08:01:58;;;;;;;2.70;2.70;;;;;;;17.89;63.08;66073.81;5126737;27;20665;-72
2022/06/16 08:04:24;;;;;;;2.70;2.60;;;;;;;17.90;61.29;66082.25;5113870;28;20220;-72
2022/06/16 08:06:51;;;;;;;2.43;2.30;;;;;;;17.95;61.91;66082.59;5126150;27;20196;-72
2022/06/16 08:09:18;;;;;;;2.87;2.70;;;;;;;18.09;61.48;66095.59;5131972;27;20616;-71
2022/06/16 08:14:36;;;;;;;2.17;2.00;;;;;;;18.07;61.07;66096.53;5117915;27;20219;-72
2022/06/16 08:17:15;;;;;;;2.30;2.30;;;;;;;18.12;61.67;66109.44;5120853;27;20227;-71
2022/06/16 08:19:41;;;;;;;4.10;2.20;;;;;;;18.23;60.72;66113.84;5114470;28;20252;-72
2022/06/16 08:22:08;;;;;;;3.23;2.47;;;;;;;18.35;59.72;66121.41;5116030;27;20209;-72
2022/06/16 08:24:35;;;;;;;2.27;2.27;;;;;;;18.33;59.17;66122.34;5127089;27;20201;-73
2022/06/16 08:27:02;;;;;;;2.13;2.13;;;;;;;18.43;60.20;66135.56;5126647;27;20254;-72
2022/06/16 08:29:29;;;;;;;2.00;2.00;;;;;;;18.58;57.45;66147.09;5130970;27;20189;-71
2022/06/16 08:31:57;;;;;;;2.10;2.00;;;;;;;18.52;56.82;66142.44;5110046;28;20246;-72
2022/06/16 08:34:23;;;;;;;2.00;1.90;;;;;;;18.54;56.88;66142.59;5112594;27;20235;-73
2022/06/16 08:36:50;;;;;;;1.73;1.73;;;;;;;18.55;57.25;66143.16;5120005;27;20653;-72
2022/06/16 08:39:16;;;;;;;2.37;2.37;;;;;;;;;;5115363;27;20201;-72
2022/06/16 08:41:54;;;;;;;1.60;1.60;;;;;;;18.76;56.92;66173.97;5113760;28;20209;-71
2022/06/16 08:44:42;;;;;;;1.60;1.60;;;;;;;18.76;56.23;66168.69;5111860;28;20226;-72
2022/06/16 08:47:21;;;;;;;1.90;1.90;;;;;;;18.79;55.97;66169.41;5114073;28;20267;-72
2022/06/16 08:50:30;;;;;;;1.70;1.70;;;;;;;18.67;52.98;66156.59;5104751;28;20280;-72
2022/06/16 08:53:06;;;;;;;1.87;1.87;;;;;;;18.77;55.94;66167.75;5111628;28;20311;-71
2022/06/16 08:55:41;;;;;;;4.40;1.90;;;;;;;18.91;55.72;66191.25;5097878;28;20294;-72
2022/06/16 08:58:31;;;;;;;1.53;1.53;;;;;;;19.16;54.22;66220.72;5116888;27;20200;-71
2022/06/16 09:01:08;;;;;;;1.77;1.67;;;;;;;19.16;53.59;66215.44;5126884;27;20629;-72
2022/06/16 09:03:43;;;;;;;2.07;1.97;;;;;;;19.25;53.05;66228.69;5121049;28;20278;-73
2022/06/16 09:06:40;;;;;;;1.80;1.70;;;;;;;19.35;55.35;66236.66;5112518;28;20193;-72
2022/06/16 09:12:42;;;;;;;1.43;1.33;;;;;;;19.45;55.31;66245.22;5113139;28;20262;-73
2022/06/16 09:15:38;;;;;;;1.50;1.50;;;;;;;19.41;54.49;66237.53;5093350;28;20205;-73
2022/06/16 09:18:12;;;;;;;1.60;1.60;;;;;;;19.33;52.97;66231.78;5099587;28;20666;-73
2022/06/16 09:20:57;;;;;;;6.03;1.83;;;;;;;19.35;53.41;66233.47;5118014;28;20208;-72
2022/06/16 09:23:33;;;;;;;2.30;2.20;;;;;;;19.38;52.67;66242.09;5118051;28;20172;-72
2022/06/16 09:26:24;;;;;;;1.30;1.30;;;;;;;19.46;54.22;66245.75;5117924;28;20646;-71
2022/06/16 09:29:13;;;;;;;1.87;1.87;;;;;;;19.43;53.67;66242.41;5117582;28;20193;-72
2022/06/16 09:32:03;;;;;;;1.53;1.53;;;;;;;19.44;53.26;66246.72;5117713;28;20246;-71
2022/06/16 09:34:51;;;;;;;1.67;1.67;;;;;;;19.41;53.01;66245.44;5118126;28;20181;-72
2022/06/16 09:37:23;;;;;;;4.57;1.80;;;;;;;19.43;53.48;66245.59;5118810;28;20577;-72
2022/06/16 09:39:58;;;;;;;1.83;1.83;;;;;;;19.47;54.00;66247.44;5117630;28;20194;-72
2022/06/16 09:43:07;;;;;;;1.50;1.40;;;;;;;19.67;55.44;66268.69;5117289;28;20279;-72
2022/06/16 09:45:41;;;;;;;2.10;2.10;;;;;;;19.83;53.61;66286.00;5099249;28;20219;-72
2022/06/16 09:48:17;;;;;;;1.67;1.67;;;;;;;19.69;54.49;66268.84;5117222;28;20230;-72
2022/06/16 09:50:46;;;;;;;1.90;1.90;;;;;;;19.70;54.81;66275.22;5117147;28;20177;-73
2022/06/16 09:53:16;;;;;;;1.70;1.70;;;;;;;;;;5117423;28;20265;-72
2022/06/16 09:55:58;;;;;;;2.17;2.17;;;;;;;19.79;53.72;66282.09;5117398;28;20508;-71
2022/06/16 09:58:31;;;;;;;1.90;1.90;;;;;;;19.90;54.70;66293.81;5117246;28;20243;-72
2022/06/16 10:01:02;;;;;;;1.50;1.50;;;;;;;20.03;54.80;66308.91;5117261;28;20608;-72
2022/06/16 10:03:40;;;;;;;2.43;2.23;;;;;;;20.04;56.15;66309.47;5116762;28;20189;-72
2022/06/16 10:06:06;;;;;;;3.73;2.10;;;;;;;;;;5117439;28;20600;-71
2022/06/16 10:08:57;;;;;;;2.47;2.33;;;;;;;20.23;55.39;66330.16;5116814;28;20269;-72
2022/06/16 10:11:55;;;;;;;2.43;2.23;;;;;;;20.18;56.94;66316.66;5117528;28;20334;-72
2022/06/16 10:14:26;;;;;;;2.53;2.40;;;;;;;;;;5116999;28;20205;-72
2022/06/16 10:16:59;;;;;;;2.50;2.40;;;;;;;20.36;57.90;66344.69;5116698;28;20185;-72
2022/06/16 10:19:29;;;;;;;2.40;2.27;;;;;;;20.14;57.38;66317.44;5116888;28;20678;-72
2022/06/16 10:21:58;;;;;;;2.20;2.20;;;;;;;20.27;57.62;66331.97;5116463;28;20679;-72
2022/06/16 10:24:27;;;;;;;2.47;2.20;;;;;;;;;;5116785;28;20185;-72
2022/06/16 10:26:57;;;;;;;3.13;2.17;;;;;;;20.31;55.93;66336.47;5115872;28;20189;-72
2022/06/16 10:29:29;;;;;;;1.90;1.90;;;;;;;20.40;54.47;66345.97;5116422;28;20209;-71
2022/06/16 10:31:58;;;;;;;2.73;2.63;;;;;;;20.48;55.96;66366.03;5116373;28;20209;-71
2022/06/16 10:34:38;;;;;;;2.27;2.27;;;;;;;20.49;55.38;66356.03;5116650;28;20169;-71
2022/06/16 10:37:18;;;;;;;2.43;2.43;;;;;;;20.49;55.73;66367.16;5081274;28;20182;-72
2022/06/16 10:39:49;;;;;;;5.20;2.73;;;;;;;;;;5116222;28;20184;-73
2022/06/16 10:42:23;;;;;;;2.90;2.70;;;;;;;20.49;54.76;66358.66;5116268;28;20201;-73
2022/06/16 10:45:11;;;;;;;2.20;2.20;;;;;;;20.57;57.86;66365.56;5116433;28;20173;-72
2022/06/16 10:47:48;;;;;;;2.00;2.00;;;;;;;20.64;56.36;66366.97;5116345;28;20238;-72
2022/06/16 10:50:20;;;;;;;2.87;2.87;;;;;;;20.63;54.86;66373.78;5116294;28;20531;-72
2022/06/16 10:52:52;;;;;;;2.93;2.83;;;;;;;20.70;55.93;66381.59;5098640;28;20237;-70
2022/06/16 10:55:23;;;;;;;3.33;2.70;;;;;;;20.76;56.38;66385.66;5116004;28;20582;-70
2022/06/16 10:58:04;;;;;;;2.43;2.43;;;;;;;20.80;54.53;66392.78;5097857;28;20181;-70
2022/06/16 11:00:35;;;;;;;2.57;2.57;;;;;;;20.91;56.15;66405.09;5115808;28;20212;-70
2022/06/16 11:03:04;;;;;;;3.40;2.20;;;;;;;20.94;55.98;66408.44;5115722;28;20231;-70
2022/06/16 11:05:36;;;;;;;2.40;2.40;;;;;;;20.98;56.25;66409.72;5115906;28;20192;-70
2022/06/16 11:08:12;;;;;;;2.77;2.67;;;;;;;21.01;55.72;66418.38;5116010;28;20205;-69
2022/06/16 11:10:59;;;;;;;2.83;2.83;;;;;;;21.03;54.81;66421.16;5115682;28;20205;-71
2022/06/16 11:13:33;;;;;;;2.43;2.33;;;;;;;21.01;57.13;66415.72;5116148;28;20212;-71
2022/06/16 11:16:04;;;;;;;2.23;2.23;;;;;;;;;;5115604;28;20201;-72
2022/06/16 11:18:33;;;;;;;2.50;2.50;;;;;;;21.10;55.03;66423.69;5115461;28;20194;-72
2022/06/16 11:21:00;;;;;;;5.60;2.83;;;;;;;21.10;53.87;66426.34;5115833;28;20220;-73
2022/06/16 11:23:26;;;;;;;3.00;3.00;;;;;;;;;;5115990;28;20182;-72
2022/06/16 11:26:24;;;;;;;2.43;2.33;;;;;;;21.35;54.85;66453.75;5115894;28;20188;-72
2022/06/16 11:28:55;;;;;;;2.37;2.37;;;;;;;21.36;54.99;66454.31;5114476;28;20579;-72
2022/06/16 11:31:38;;;;;;;5.03;2.63;;;;;;;;;;5115730;28;20209;-72
2022/06/16 11:34:24;;;;;;;2.93;2.80;;;;;;;21.43;54.83;66462.16;5115181;28;20659;-71
2022/06/16 11:37:05;;;;;;;3.77;2.63;;;;;;;21.55;52.07;66475.03;5115690;28;20181;-72
2022/06/16 11:39:53;;;;;;;2.53;2.53;;;;;;;21.51;52.04;66471.13;5114262;28;20213;-72
2022/06/16 11:42:34;;;;;;;2.27;2.27;;;;;;;;;;5115186;28;20227;-72
2022/06/16 11:45:08;;;;;;;2.93;2.73;;;;;;;21.37;54.10;66455.47;5115639;28;20173;-72
2022/06/16 11:48:08;;;;;;;2.37;2.37;;;;;;;21.47;55.56;66474.56;5115242;28;20204;-72
2022/06/16 11:50:53;;;;;;;2.87;2.70;;;;;;;;;;5115358;28;20574;-72
2022/06/16 11:53:29;;;;;;;2.40;2.40;;;;;;;21.54;54.52;66476.56;5115430;28;20189;-69
2022/06/16 11:56:30;;;;;;;2.70;2.60;;;;;;;21.62;53.46;66480.78;5115012;28;20208;-70
2022/06/16 11:59:06;;;;;;;2.67;2.67;;;;;;;21.65;53.75;66486.78;5058931;28;20714;-70
2022/06/16 12:01:40;;;;;;;2.30;2.30;;;;;;;21.68;53.26;66492.78;5114596;28;20699;-69
2022/06/16 12:04:28;;;;;;;3.17;2.97;;;;;;;21.73;53.29;66500.47;5114610;28;20222;-69
2022/06/16 12:07:01;;;;;;;2.73;2.57;;;;;;;;;;5096587;28;20242;-69
2022/06/16 12:09:43;;;;;;;2.73;2.73;;;;;;;21.93;51.42;66514.34;5115035;28;20170;-69
2022/06/16 12:12:18;;;;;;;2.77;2.57;;;;;;;21.96;54.30;66525.66;5114308;28;20289;-70
2022/06/16 12:15:02;;;;;;;2.77;2.77;;;;;;;21.92;53.02;66516.44;5114913;28;20203;-70
2022/06/16 12:17:43;;;;;;;2.80;2.80;;;;;;;21.95;52.45;66517.16;5114261;28;20200;-70
2022/06/16 12:20:09;;;;;;;2.87;2.70;;;;;;;;;;5114725;28;20197;-69
2022/06/16 12:23:05;;;;;;;2.40;2.30;;;;;;;;;;5114066;28;20531;-69
2022/06/16 12:25:35;;;;;;;2.60;2.50;;;;;;;;;;5114488;28;20207;-69
2022/06/16 12:28:12;;;;;;;2.67;2.67;;;;;;;22.03;51.76;66525.56;5114461;28;20574;-69
2022/06/16 12:30:48;;;;;;;2.60;2.60;;;;;;;22.05;51.94;66527.78;5114345;28;20680;-70
2022/06/16 12:33:30;;;;;;;2.80;2.80;;;;;;;22.11;52.16;66534.53;5114401;28;20572;-70
2022/06/16 12:36:12;;;;;;;2.20;2.20;;;;;;;22.23;53.06;66547.97;5114260;28;20169;-69
2022/06/16 12:38:46;;;;;;;2.80;2.43;;;;;;;22.37;50.97;66565.72;5114191;28;20236;-69
2022/06/16 12:41:25;;;;;;;2.67;2.67;;;;;;;;;;5114446;28;20212;-70
2022/06/16 12:43:58;;;;;;;2.67;2.67;;;;;;;;;;5114230;28;20169;-69
2022/06/16 12:46:29;;;;;;;3.30;3.20;;;;;;;;;;5114112;28;20191;-69
2022/06/16 12:49:03;;;;;;;2.47;2.47;;;;;;;22.43;52.53;66569.22;5114058;28;20180;-69